sensor_id;sensor_type;location;lat;lon;timestamp;P1;durP1;ratioP1;P2;durP2;ratioP2
72573;SDS011;60603;52.548;13.420;2022-08-21T00:00:40;9.80;;;5.60;;
72573;SDS011;60603;52.548;13.420;2022-08-21T00:03:08;7.75;;;5.38;;
72573;SDS011;60603;52.548;13.420;2022-08-21T00:05:36;10.30;;;6.03;;
72573;SDS011;60603;52.548;13.420;2022-08-21T00:08:02;9.38;;;5.45;;
72573;SDS011;60603;52.548;13.420;2022-08-21T00:10:28;11.48;;;7.15;;
72573;SDS011;60603;52.548;13.420;2022-08-21T00:12:53;13.15;;;6.20;;
72573;SDS011;60603;52.548;13.420;2022-08-21T00:15:22;11.95;;;6.82;;
72573;SDS011;60603;52.548;13.420;2022-08-21T00:17:48;9.02;;;5.72;;
72573;SDS011;60603;52.548;13.420;2022-08-21T00:20:16;10.48;;;5.97;;
72573;SDS011;60603;52.548;13.420;2022-08-21T00:22:42;14.50;;;6.63;;
72573;SDS011;60603;52.548;13.420;2022-08-21T00:25:08;12.32;;;6.90;;
72573;SDS011;60603;52.548;13.420;2022-08-21T00:27:34;10.27;;;6.53;;
72573;SDS011;60603;52.548;13.420;2022-08-21T00:30:00;10.10;;;6.88;;
72573;SDS011;60603;52.548;13.420;2022-08-21T00:32:26;12.73;;;7.45;;
72573;SDS011;60603;52.548;13.420;2022-08-21T00:34:52;10.25;;;6.60;;
72573;SDS011;60603;52.548;13.420;2022-08-21T00:37:18;10.30;;;7.05;;
72573;SDS011;60603;52.548;13.420;2022-08-21T00:39:43;10.75;;;6.20;;
72573;SDS011;60603;52.548;13.420;2022-08-21T00:42:09;8.48;;;5.97;;
72573;SDS011;60603;52.548;13.420;2022-08-21T00:44:35;10.85;;;6.70;;
72573;SDS011;60603;52.548;13.420;2022-08-21T00:47:01;11.63;;;6.07;;
72573;SDS011;60603;52.548;13.420;2022-08-21T00:49:27;10.20;;;5.97;;
72573;SDS011;60603;52.548;13.420;2022-08-21T00:51:55;9.25;;;6.28;;
72573;SDS011;60603;52.548;13.420;2022-08-21T00:54:24;9.00;;;6.47;;
72573;SDS011;60603;52.548;13.420;2022-08-21T00:56:52;10.55;;;6.68;;
72573;SDS011;60603;52.548;13.420;2022-08-21T00:59:19;12.70;;;6.63;;
72573;SDS011;60603;52.548;13.420;2022-08-21T01:01:45;12.52;;;6.07;;
72573;SDS011;60603;52.548;13.420;2022-08-21T01:04:11;9.20;;;6.13;;
72573;SDS011;60603;52.548;13.420;2022-08-21T01:06:37;9.90;;;5.90;;
72573;SDS011;60603;52.548;13.420;2022-08-21T01:09:03;21.92;;;6.60;;
72573;SDS011;60603;52.548;13.420;2022-08-21T01:11:29;12.27;;;6.60;;
72573;SDS011;60603;52.548;13.420;2022-08-21T01:13:54;10.60;;;6.13;;
72573;SDS011;60603;52.548;13.420;2022-08-21T01:16:20;9.93;;;5.68;;
72573;SDS011;60603;52.548;13.420;2022-08-21T01:18:46;10.07;;;6.28;;
72573;SDS011;60603;52.548;13.420;2022-08-21T01:21:14;9.40;;;6.05;;
72573;SDS011;60603;52.548;13.420;2022-08-21T01:23:41;10.25;;;6.20;;
72573;SDS011;60603;52.548;13.420;2022-08-21T01:26:08;11.68;;;5.38;;
72573;SDS011;60603;52.548;13.420;2022-08-21T01:28:38;10.10;;;5.43;;
72573;SDS011;60603;52.548;13.420;2022-08-21T01:31:06;9.48;;;5.93;;
72573;SDS011;60603;52.548;13.420;2022-08-21T01:33:33;12.05;;;6.15;;
72573;SDS011;60603;52.548;13.420;2022-08-21T01:35:58;12.65;;;6.75;;
72573;SDS011;60603;52.548;13.420;2022-08-21T01:38:24;9.68;;;6.25;;
72573;SDS011;60603;52.548;13.420;2022-08-21T01:40:50;9.93;;;6.15;;
72573;SDS011;60603;52.548;13.420;2022-08-21T01:43:15;9.57;;;5.53;;
72573;SDS011;60603;52.548;13.420;2022-08-21T01:45:40;10.15;;;5.88;;
72573;SDS011;60603;52.548;13.420;2022-08-21T01:48:06;13.15;;;5.57;;
72573;SDS011;60603;52.548;13.420;2022-08-21T01:50:32;11.85;;;5.70;;
72573;SDS011;60603;52.548;13.420;2022-08-21T01:52:57;9.07;;;5.18;;
72573;SDS011;60603;52.548;13.420;2022-08-21T01:55:23;11.90;;;5.47;;
72573;SDS011;60603;52.548;13.420;2022-08-21T01:57:48;11.73;;;4.97;;
72573;SDS011;60603;52.548;13.420;2022-08-21T02:00:16;9.82;;;4.72;;
72573;SDS011;60603;52.548;13.420;2022-08-21T02:02:42;8.80;;;5.20;;
72573;SDS011;60603;52.548;13.420;2022-08-21T02:05:08;10.23;;;4.65;;
72573;SDS011;60603;52.548;13.420;2022-08-21T02:07:36;10.25;;;5.15;;
72573;SDS011;60603;52.548;13.420;2022-08-21T02:10:03;10.57;;;5.05;;
72573;SDS011;60603;52.548;13.420;2022-08-21T02:12:29;7.95;;;4.78;;
72573;SDS011;60603;52.548;13.420;2022-08-21T02:14:55;8.18;;;5.20;;
72573;SDS011;60603;52.548;13.420;2022-08-21T02:17:21;8.73;;;4.43;;
72573;SDS011;60603;52.548;13.420;2022-08-21T02:19:46;8.63;;;4.90;;
72573;SDS011;60603;52.548;13.420;2022-08-21T02:22:12;8.73;;;4.93;;
72573;SDS011;60603;52.548;13.420;2022-08-21T02:24:38;9.10;;;5.28;;
72573;SDS011;60603;52.548;13.420;2022-08-21T02:27:04;8.55;;;4.30;;
72573;SDS011;60603;52.548;13.420;2022-08-21T02:29:29;8.43;;;4.38;;
72573;SDS011;60603;52.548;13.420;2022-08-21T02:31:55;7.00;;;4.30;;
72573;SDS011;60603;52.548;13.420;2022-08-21T02:34:20;9.02;;;4.28;;
72573;SDS011;60603;52.548;13.420;2022-08-21T02:36:46;10.07;;;4.80;;
72573;SDS011;60603;52.548;13.420;2022-08-21T02:39:12;12.13;;;4.70;;
72573;SDS011;60603;52.548;13.420;2022-08-21T02:41:38;8.23;;;3.92;;
72573;SDS011;60603;52.548;13.420;2022-08-21T02:44:03;7.00;;;3.75;;
72573;SDS011;60603;52.548;13.420;2022-08-21T02:46:29;9.13;;;4.03;;
72573;SDS011;60603;52.548;13.420;2022-08-21T02:48:55;7.22;;;3.70;;
72573;SDS011;60603;52.548;13.420;2022-08-21T02:51:21;6.13;;;3.72;;
72573;SDS011;60603;52.548;13.420;2022-08-21T02:53:48;7.68;;;3.75;;
72573;SDS011;60603;52.548;13.420;2022-08-21T02:56:15;9.43;;;4.43;;
72573;SDS011;60603;52.548;13.420;2022-08-21T02:58:42;12.25;;;4.38;;
72573;SDS011;60603;52.548;13.420;2022-08-21T03:01:09;7.82;;;3.72;;
72573;SDS011;60603;52.548;13.420;2022-08-21T03:03:39;7.45;;;3.15;;
72573;SDS011;60603;52.548;13.420;2022-08-21T03:06:06;7.55;;;3.75;;
72573;SDS011;60603;52.548;13.420;2022-08-21T03:08:33;7.22;;;3.25;;
72573;SDS011;60603;52.548;13.420;2022-08-21T03:10:59;10.73;;;4.05;;
72573;SDS011;60603;52.548;13.420;2022-08-21T03:13:26;6.18;;;3.55;;
72573;SDS011;60603;52.548;13.420;2022-08-21T03:15:53;6.68;;;3.25;;
72573;SDS011;60603;52.548;13.420;2022-08-21T03:18:18;8.68;;;4.32;;
72573;SDS011;60603;52.548;13.420;2022-08-21T03:20:45;5.95;;;3.50;;
72573;SDS011;60603;52.548;13.420;2022-08-21T03:23:11;8.07;;;3.38;;
72573;SDS011;60603;52.548;13.420;2022-08-21T03:25:37;8.35;;;4.05;;
72573;SDS011;60603;52.548;13.420;2022-08-21T03:28:03;8.68;;;3.10;;
72573;SDS011;60603;52.548;13.420;2022-08-21T03:30:30;7.15;;;3.47;;
72573;SDS011;60603;52.548;13.420;2022-08-21T03:32:57;5.18;;;2.95;;
72573;SDS011;60603;52.548;13.420;2022-08-21T03:35:22;8.98;;;4.13;;
72573;SDS011;60603;52.548;13.420;2022-08-21T03:37:48;10.23;;;3.40;;
72573;SDS011;60603;52.548;13.420;2022-08-21T03:40:15;9.80;;;4.00;;
72573;SDS011;60603;52.548;13.420;2022-08-21T03:42:41;7.65;;;3.90;;
72573;SDS011;60603;52.548;13.420;2022-08-21T03:45:07;6.43;;;3.60;;
72573;SDS011;60603;52.548;13.420;2022-08-21T03:47:33;6.55;;;3.33;;
72573;SDS011;60603;52.548;13.420;2022-08-21T03:49:59;6.78;;;3.35;;
72573;SDS011;60603;52.548;13.420;2022-08-21T03:52:25;8.98;;;3.65;;
72573;SDS011;60603;52.548;13.420;2022-08-21T03:54:51;7.60;;;3.45;;
72573;SDS011;60603;52.548;13.420;2022-08-21T03:57:17;8.35;;;3.20;;
72573;SDS011;60603;52.548;13.420;2022-08-21T03:59:42;9.98;;;3.13;;
72573;SDS011;60603;52.548;13.420;2022-08-21T04:02:08;10.25;;;3.60;;
72573;SDS011;60603;52.548;13.420;2022-08-21T04:04:34;8.95;;;3.42;;
72573;SDS011;60603;52.548;13.420;2022-08-21T04:07:00;5.88;;;3.15;;
72573;SDS011;60603;52.548;13.420;2022-08-21T04:09:26;8.40;;;3.40;;
72573;SDS011;60603;52.548;13.420;2022-08-21T04:11:51;7.88;;;3.03;;
72573;SDS011;60603;52.548;13.420;2022-08-21T04:14:17;6.95;;;3.30;;
72573;SDS011;60603;52.548;13.420;2022-08-21T04:16:43;6.10;;;3.03;;
72573;SDS011;60603;52.548;13.420;2022-08-21T04:19:09;6.30;;;3.38;;
72573;SDS011;60603;52.548;13.420;2022-08-21T04:21:36;8.98;;;2.92;;
72573;SDS011;60603;52.548;13.420;2022-08-21T04:24:03;7.97;;;2.90;;
72573;SDS011;60603;52.548;13.420;2022-08-21T04:26:28;6.15;;;2.75;;
72573;SDS011;60603;52.548;13.420;2022-08-21T04:28:56;8.57;;;2.97;;
72573;SDS011;60603;52.548;13.420;2022-08-21T04:31:23;6.40;;;2.85;;
72573;SDS011;60603;52.548;13.420;2022-08-21T04:33:49;8.63;;;2.60;;
72573;SDS011;60603;52.548;13.420;2022-08-21T04:36:14;7.25;;;2.50;;
72573;SDS011;60603;52.548;13.420;2022-08-21T04:38:40;6.53;;;2.80;;
72573;SDS011;60603;52.548;13.420;2022-08-21T04:41:06;9.52;;;3.13;;
72573;SDS011;60603;52.548;13.420;2022-08-21T04:43:32;8.07;;;2.72;;
72573;SDS011;60603;52.548;13.420;2022-08-21T04:45:57;6.70;;;2.65;;
72573;SDS011;60603;52.548;13.420;2022-08-21T04:48:23;6.50;;;2.80;;
72573;SDS011;60603;52.548;13.420;2022-08-21T04:50:56;7.72;;;2.67;;
72573;SDS011;60603;52.548;13.420;2022-08-21T04:53:27;6.03;;;2.53;;
72573;SDS011;60603;52.548;13.420;2022-08-21T04:55:55;8.63;;;3.00;;
72573;SDS011;60603;52.548;13.420;2022-08-21T04:58:22;7.68;;;2.55;;
72573;SDS011;60603;52.548;13.420;2022-08-21T05:00:48;6.68;;;2.50;;
72573;SDS011;60603;52.548;13.420;2022-08-21T05:03:14;7.22;;;3.00;;
72573;SDS011;60603;52.548;13.420;2022-08-21T05:05:40;8.10;;;2.60;;
72573;SDS011;60603;52.548;13.420;2022-08-21T05:08:06;6.45;;;2.80;;
72573;SDS011;60603;52.548;13.420;2022-08-21T05:10:33;5.97;;;2.45;;
72573;SDS011;60603;52.548;13.420;2022-08-21T05:12:58;6.60;;;2.70;;
72573;SDS011;60603;52.548;13.420;2022-08-21T05:15:25;8.80;;;2.78;;
72573;SDS011;60603;52.548;13.420;2022-08-21T05:17:53;8.07;;;2.85;;
72573;SDS011;60603;52.548;13.420;2022-08-21T05:20:19;7.78;;;2.63;;
72573;SDS011;60603;52.548;13.420;2022-08-21T05:22:45;7.05;;;2.38;;
72573;SDS011;60603;52.548;13.420;2022-08-21T05:25:11;7.63;;;2.60;;
72573;SDS011;60603;52.548;13.420;2022-08-21T05:27:37;5.65;;;2.53;;
72573;SDS011;60603;52.548;13.420;2022-08-21T05:30:03;6.38;;;2.75;;
72573;SDS011;60603;52.548;13.420;2022-08-21T05:32:29;7.68;;;2.72;;
72573;SDS011;60603;52.548;13.420;2022-08-21T05:34:54;6.07;;;2.67;;
72573;SDS011;60603;52.548;13.420;2022-08-21T05:37:20;6.32;;;2.00;;
72573;SDS011;60603;52.548;13.420;2022-08-21T05:39:46;6.28;;;2.33;;
72573;SDS011;60603;52.548;13.420;2022-08-21T05:42:12;5.53;;;2.40;;
72573;SDS011;60603;52.548;13.420;2022-08-21T05:44:37;6.50;;;3.08;;
72573;SDS011;60603;52.548;13.420;2022-08-21T05:47:07;7.28;;;3.05;;
72573;SDS011;60603;52.548;13.420;2022-08-21T05:49:33;8.52;;;2.67;;
72573;SDS011;60603;52.548;13.420;2022-08-21T05:51:59;6.45;;;2.55;;
72573;SDS011;60603;52.548;13.420;2022-08-21T05:54:24;8.25;;;2.55;;
72573;SDS011;60603;52.548;13.420;2022-08-21T05:56:50;6.50;;;2.40;;
72573;SDS011;60603;52.548;13.420;2022-08-21T05:59:17;6.65;;;2.28;;
72573;SDS011;60603;52.548;13.420;2022-08-21T06:01:45;5.90;;;2.00;;
72573;SDS011;60603;52.548;13.420;2022-08-21T06:04:11;7.55;;;2.80;;
72573;SDS011;60603;52.548;13.420;2022-08-21T06:06:36;5.85;;;2.35;;
72573;SDS011;60603;52.548;13.420;2022-08-21T06:09:03;10.18;;;2.20;;
72573;SDS011;60603;52.548;13.420;2022-08-21T06:11:29;5.68;;;2.20;;
72573;SDS011;60603;52.548;13.420;2022-08-21T06:13:54;6.15;;;1.85;;
72573;SDS011;60603;52.548;13.420;2022-08-21T06:16:20;5.88;;;1.92;;
72573;SDS011;60603;52.548;13.420;2022-08-21T06:18:47;7.28;;;2.47;;
72573;SDS011;60603;52.548;13.420;2022-08-21T06:21:12;6.93;;;2.30;;
72573;SDS011;60603;52.548;13.420;2022-08-21T06:23:39;3.85;;;1.90;;
72573;SDS011;60603;52.548;13.420;2022-08-21T06:26:05;9.20;;;2.25;;
72573;SDS011;60603;52.548;13.420;2022-08-21T06:28:31;9.25;;;2.83;;
72573;SDS011;60603;52.548;13.420;2022-08-21T06:30:58;5.80;;;2.05;;
72573;SDS011;60603;52.548;13.420;2022-08-21T06:33:23;5.43;;;2.00;;
72573;SDS011;60603;52.548;13.420;2022-08-21T06:35:49;5.80;;;1.95;;
72573;SDS011;60603;52.548;13.420;2022-08-21T06:38:15;5.93;;;2.38;;
72573;SDS011;60603;52.548;13.420;2022-08-21T06:40:41;8.07;;;1.98;;
72573;SDS011;60603;52.548;13.420;2022-08-21T06:43:08;7.32;;;1.98;;
72573;SDS011;60603;52.548;13.420;2022-08-21T06:45:34;6.50;;;1.92;;
72573;SDS011;60603;52.548;13.420;2022-08-21T06:48:00;5.35;;;1.88;;
72573;SDS011;60603;52.548;13.420;2022-08-21T06:50:25;6.00;;;1.90;;
72573;SDS011;60603;52.548;13.420;2022-08-21T06:52:58;7.57;;;2.50;;
72573;SDS011;60603;52.548;13.420;2022-08-21T06:55:23;4.95;;;1.85;;
72573;SDS011;60603;52.548;13.420;2022-08-21T06:57:49;3.85;;;1.80;;
72573;SDS011;60603;52.548;13.420;2022-08-21T07:00:14;6.47;;;1.80;;
72573;SDS011;60603;52.548;13.420;2022-08-21T07:02:40;7.20;;;2.40;;
72573;SDS011;60603;52.548;13.420;2022-08-21T07:05:06;10.40;;;2.72;;
72573;SDS011;60603;52.548;13.420;2022-08-21T07:07:32;8.35;;;2.20;;
72573;SDS011;60603;52.548;13.420;2022-08-21T07:09:57;7.35;;;1.98;;
72573;SDS011;60603;52.548;13.420;2022-08-21T07:12:23;6.72;;;2.17;;
72573;SDS011;60603;52.548;13.420;2022-08-21T07:14:48;5.40;;;1.80;;
72573;SDS011;60603;52.548;13.420;2022-08-21T07:17:14;5.20;;;1.85;;
72573;SDS011;60603;52.548;13.420;2022-08-21T07:19:40;7.90;;;1.80;;
72573;SDS011;60603;52.548;13.420;2022-08-21T07:22:05;5.38;;;1.80;;
72573;SDS011;60603;52.548;13.420;2022-08-21T07:24:31;7.07;;;2.53;;
72573;SDS011;60603;52.548;13.420;2022-08-21T07:26:57;6.68;;;2.20;;
72573;SDS011;60603;52.548;13.420;2022-08-21T07:29:23;5.63;;;1.50;;
72573;SDS011;60603;52.548;13.420;2022-08-21T07:31:48;5.72;;;1.52;;
72573;SDS011;60603;52.548;13.420;2022-08-21T07:34:14;7.07;;;2.13;;
72573;SDS011;60603;52.548;13.420;2022-08-21T07:36:40;7.25;;;1.77;;
72573;SDS011;60603;52.548;13.420;2022-08-21T07:39:05;4.05;;;1.77;;
72573;SDS011;60603;52.548;13.420;2022-08-21T07:41:31;10.30;;;2.38;;
72573;SDS011;60603;52.548;13.420;2022-08-21T07:43:58;4.10;;;1.55;;
72573;SDS011;60603;52.548;13.420;2022-08-21T07:46:24;5.82;;;1.92;;
72573;SDS011;60603;52.548;13.420;2022-08-21T07:48:50;5.00;;;1.58;;
72573;SDS011;60603;52.548;13.420;2022-08-21T07:51:18;3.65;;;1.65;;
72573;SDS011;60603;52.548;13.420;2022-08-21T07:53:48;5.95;;;2.30;;
72573;SDS011;60603;52.548;13.420;2022-08-21T07:56:15;7.78;;;1.90;;
72573;SDS011;60603;52.548;13.420;2022-08-21T07:58:40;5.13;;;1.85;;
72573;SDS011;60603;52.548;13.420;2022-08-21T08:01:06;5.90;;;1.70;;
72573;SDS011;60603;52.548;13.420;2022-08-21T08:03:32;7.32;;;1.52;;
72573;SDS011;60603;52.548;13.420;2022-08-21T08:05:58;5.55;;;1.50;;
72573;SDS011;60603;52.548;13.420;2022-08-21T08:08:23;6.03;;;2.40;;
72573;SDS011;60603;52.548;13.420;2022-08-21T08:10:49;4.18;;;1.80;;
72573;SDS011;60603;52.548;13.420;2022-08-21T08:13:15;8.48;;;1.63;;
72573;SDS011;60603;52.548;13.420;2022-08-21T08:15:41;3.63;;;1.38;;
72573;SDS011;60603;52.548;13.420;2022-08-21T08:18:06;4.68;;;1.40;;
72573;SDS011;60603;52.548;13.420;2022-08-21T08:20:32;4.75;;;1.60;;
72573;SDS011;60603;52.548;13.420;2022-08-21T08:22:58;5.97;;;1.77;;
72573;SDS011;60603;52.548;13.420;2022-08-21T08:25:24;5.15;;;1.88;;
72573;SDS011;60603;52.548;13.420;2022-08-21T08:27:50;4.60;;;1.30;;
72573;SDS011;60603;52.548;13.420;2022-08-21T08:30:17;4.28;;;1.60;;
72573;SDS011;60603;52.548;13.420;2022-08-21T08:32:43;4.15;;;1.33;;
72573;SDS011;60603;52.548;13.420;2022-08-21T08:35:10;5.70;;;1.35;;
72573;SDS011;60603;52.548;13.420;2022-08-21T08:37:36;6.35;;;2.70;;
72573;SDS011;60603;52.548;13.420;2022-08-21T08:40:11;6.90;;;1.60;;
72573;SDS011;60603;52.548;13.420;2022-08-21T08:42:37;4.35;;;1.80;;
72573;SDS011;60603;52.548;13.420;2022-08-21T08:45:12;7.22;;;1.88;;
72573;SDS011;60603;52.548;13.420;2022-08-21T08:47:39;4.63;;;1.35;;
72573;SDS011;60603;52.548;13.420;2022-08-21T08:52:35;6.53;;;1.75;;
72573;SDS011;60603;52.548;13.420;2022-08-21T08:55:05;6.57;;;1.70;;
72573;SDS011;60603;52.548;13.420;2022-08-21T08:57:32;7.60;;;1.67;;
72573;SDS011;60603;52.548;13.420;2022-08-21T08:59:59;6.75;;;1.70;;
72573;SDS011;60603;52.548;13.420;2022-08-21T09:02:25;5.25;;;1.85;;
72573;SDS011;60603;52.548;13.420;2022-08-21T09:04:53;3.83;;;1.40;;
72573;SDS011;60603;52.548;13.420;2022-08-21T09:12:19;5.53;;;1.45;;
72573;SDS011;60603;52.548;13.420;2022-08-21T09:14:54;4.65;;;1.60;;
72573;SDS011;60603;52.548;13.420;2022-08-21T09:24:55;7.57;;;2.58;;
72573;SDS011;60603;52.548;13.420;2022-08-21T09:27:25;5.50;;;2.00;;
72573;SDS011;60603;52.548;13.420;2022-08-21T09:29:52;5.47;;;1.83;;
72573;SDS011;60603;52.548;13.420;2022-08-21T09:32:20;7.75;;;1.77;;
72573;SDS011;60603;52.548;13.420;2022-08-21T09:34:56;5.43;;;2.03;;
72573;SDS011;60603;52.548;13.420;2022-08-21T09:37:23;6.75;;;2.28;;
72573;SDS011;60603;52.548;13.420;2022-08-21T09:39:48;6.07;;;1.80;;
72573;SDS011;60603;52.548;13.420;2022-08-21T09:42:21;5.15;;;1.73;;
72573;SDS011;60603;52.548;13.420;2022-08-21T09:44:46;5.45;;;1.92;;
72573;SDS011;60603;52.548;13.420;2022-08-21T09:47:12;4.22;;;1.42;;
72573;SDS011;60603;52.548;13.420;2022-08-21T09:49:39;7.07;;;2.00;;
72573;SDS011;60603;52.548;13.420;2022-08-21T09:52:11;6.10;;;1.98;;
72573;SDS011;60603;52.548;13.420;2022-08-21T09:54:39;5.97;;;1.77;;
72573;SDS011;60603;52.548;13.420;2022-08-21T10:00:24;4.03;;;1.40;;
72573;SDS011;60603;52.548;13.420;2022-08-21T10:02:49;4.55;;;1.65;;
72573;SDS011;60603;52.548;13.420;2022-08-21T10:05:23;4.65;;;1.35;;
72573;SDS011;60603;52.548;13.420;2022-08-21T10:07:49;6.97;;;2.10;;
72573;SDS011;60603;52.548;13.420;2022-08-21T10:10:16;5.50;;;1.80;;
72573;SDS011;60603;52.548;13.420;2022-08-21T10:15:12;6.60;;;1.67;;
72573;SDS011;60603;52.548;13.420;2022-08-21T10:17:44;4.97;;;1.60;;
72573;SDS011;60603;52.548;13.420;2022-08-21T10:20:20;5.38;;;1.50;;
72573;SDS011;60603;52.548;13.420;2022-08-21T10:22:52;3.97;;;1.80;;
72573;SDS011;60603;52.548;13.420;2022-08-21T10:30:21;5.00;;;1.70;;
72573;SDS011;60603;52.548;13.420;2022-08-21T10:35:56;4.18;;;1.45;;
72573;SDS011;60603;52.548;13.420;2022-08-21T10:40:59;5.60;;;1.85;;
72573;SDS011;60603;52.548;13.420;2022-08-21T10:46:07;5.35;;;1.67;;
72573;SDS011;60603;52.548;13.420;2022-08-21T10:51:09;4.88;;;1.70;;
72573;SDS011;60603;52.548;13.420;2022-08-21T10:56:20;6.28;;;1.50;;
72573;SDS011;60603;52.548;13.420;2022-08-21T10:58:49;8.88;;;3.45;;
72573;SDS011;60603;52.548;13.420;2022-08-21T11:01:27;6.93;;;1.60;;
72573;SDS011;60603;52.548;13.420;2022-08-21T11:04:04;5.45;;;2.17;;
72573;SDS011;60603;52.548;13.420;2022-08-21T11:06:32;6.05;;;1.70;;
72573;SDS011;60603;52.548;13.420;2022-08-21T11:09:11;6.97;;;2.15;;
72573;SDS011;60603;52.548;13.420;2022-08-21T11:11:56;5.97;;;1.95;;
72573;SDS011;60603;52.548;13.420;2022-08-21T11:17:29;5.10;;;1.83;;
72573;SDS011;60603;52.548;13.420;2022-08-21T11:19:52;6.13;;;2.22;;
72573;SDS011;60603;52.548;13.420;2022-08-21T11:22:33;3.08;;;1.25;;
72573;SDS011;60603;52.548;13.420;2022-08-21T11:25:03;4.22;;;1.58;;
72573;SDS011;60603;52.548;13.420;2022-08-21T11:27:36;4.28;;;1.20;;
72573;SDS011;60603;52.548;13.420;2022-08-21T11:30:05;4.28;;;1.60;;
72573;SDS011;60603;52.548;13.420;2022-08-21T11:35:21;6.07;;;1.38;;
72573;SDS011;60603;52.548;13.420;2022-08-21T11:40:35;3.10;;;1.15;;
72573;SDS011;60603;52.548;13.420;2022-08-21T11:45:54;3.42;;;1.15;;
72573;SDS011;60603;52.548;13.420;2022-08-21T11:48:35;3.60;;;0.93;;
72573;SDS011;60603;52.548;13.420;2022-08-21T11:51:12;3.42;;;1.20;;
72573;SDS011;60603;52.548;13.420;2022-08-21T11:54:21;3.60;;;1.35;;
72573;SDS011;60603;52.548;13.420;2022-08-21T11:56:30;2.97;;;1.17;;
72573;SDS011;60603;52.548;13.420;2022-08-21T11:58:59;3.45;;;1.00;;
72573;SDS011;60603;52.548;13.420;2022-08-21T12:01:33;3.33;;;1.52;;
72573;SDS011;60603;52.548;13.420;2022-08-21T12:04:08;4.25;;;1.40;;
72573;SDS011;60603;52.548;13.420;2022-08-21T12:09:03;2.58;;;0.95;;
72573;SDS011;60603;52.548;13.420;2022-08-21T12:11:29;3.78;;;1.00;;
72573;SDS011;60603;52.548;13.420;2022-08-21T12:14:15;3.50;;;1.30;;
72573;SDS011;60603;52.548;13.420;2022-08-21T12:16:45;5.03;;;1.85;;
72573;SDS011;60603;52.548;13.420;2022-08-21T12:19:11;3.90;;;1.20;;
72573;SDS011;60603;52.548;13.420;2022-08-21T12:24:20;3.80;;;1.10;;
72573;SDS011;60603;52.548;13.420;2022-08-21T12:27:14;3.88;;;1.33;;
72573;SDS011;60603;52.548;13.420;2022-08-21T12:29:46;3.42;;;1.40;;
72573;SDS011;60603;52.548;13.420;2022-08-21T12:34:40;3.53;;;1.20;;
72573;SDS011;60603;52.548;13.420;2022-08-21T12:37:19;3.70;;;1.23;;
72573;SDS011;60603;52.548;13.420;2022-08-21T12:39:46;3.80;;;1.35;;
72573;SDS011;60603;52.548;13.420;2022-08-21T12:42:17;2.33;;;0.93;;
72573;SDS011;60603;52.548;13.420;2022-08-21T12:44:51;2.05;;;0.80;;
72573;SDS011;60603;52.548;13.420;2022-08-21T12:49:51;3.85;;;1.23;;
72573;SDS011;60603;52.548;13.420;2022-08-21T12:52:21;3.28;;;1.08;;
72573;SDS011;60603;52.548;13.420;2022-08-21T12:54:47;3.00;;;1.10;;
72573;SDS011;60603;52.548;13.420;2022-08-21T12:57:20;3.65;;;1.20;;
72573;SDS011;60603;52.548;13.420;2022-08-21T12:59:49;3.08;;;1.10;;
72573;SDS011;60603;52.548;13.420;2022-08-21T13:02:18;6.47;;;1.52;;
72573;SDS011;60603;52.548;13.420;2022-08-21T13:04:45;3.40;;;1.42;;
72573;SDS011;60603;52.548;13.420;2022-08-21T13:07:12;3.15;;;1.23;;
72573;SDS011;60603;52.548;13.420;2022-08-21T13:09:50;4.57;;;1.60;;
72573;SDS011;60603;52.548;13.420;2022-08-21T13:12:16;4.03;;;1.42;;
72573;SDS011;60603;52.548;13.420;2022-08-21T13:14:44;4.00;;;1.40;;
72573;SDS011;60603;52.548;13.420;2022-08-21T13:17:10;4.28;;;1.40;;
72573;SDS011;60603;52.548;13.420;2022-08-21T13:19:36;4.13;;;1.23;;
72573;SDS011;60603;52.548;13.420;2022-08-21T13:22:02;4.30;;;1.33;;
72573;SDS011;60603;52.548;13.420;2022-08-21T13:24:31;3.88;;;1.73;;
72573;SDS011;60603;52.548;13.420;2022-08-21T13:26:58;4.63;;;1.42;;
72573;SDS011;60603;52.548;13.420;2022-08-21T13:29:30;5.07;;;1.42;;
72573;SDS011;60603;52.548;13.420;2022-08-21T13:32:00;3.92;;;1.50;;
72573;SDS011;60603;52.548;13.420;2022-08-21T13:34:29;4.75;;;1.70;;
72573;SDS011;60603;52.548;13.420;2022-08-21T13:36:57;3.97;;;1.33;;
72573;SDS011;60603;52.548;13.420;2022-08-21T13:39:23;5.07;;;1.25;;
72573;SDS011;60603;52.548;13.420;2022-08-21T13:41:50;5.82;;;1.58;;
72573;SDS011;60603;52.548;13.420;2022-08-21T13:44:18;5.78;;;1.88;;
72573;SDS011;60603;52.548;13.420;2022-08-21T13:46:44;4.13;;;1.85;;
72573;SDS011;60603;52.548;13.420;2022-08-21T13:49:12;5.38;;;2.10;;
72573;SDS011;60603;52.548;13.420;2022-08-21T13:51:38;5.18;;;1.50;;
72573;SDS011;60603;52.548;13.420;2022-08-21T13:54:14;6.20;;;1.40;;
72573;SDS011;60603;52.548;13.420;2022-08-21T13:56:41;5.07;;;1.70;;
72573;SDS011;60603;52.548;13.420;2022-08-21T13:59:07;3.80;;;1.70;;
72573;SDS011;60603;52.548;13.420;2022-08-21T14:01:34;5.32;;;1.88;;
72573;SDS011;60603;52.548;13.420;2022-08-21T14:04:05;5.75;;;1.70;;
72573;SDS011;60603;52.548;13.420;2022-08-21T14:06:34;5.07;;;1.85;;
72573;SDS011;60603;52.548;13.420;2022-08-21T14:09:00;4.85;;;1.52;;
72573;SDS011;60603;52.548;13.420;2022-08-21T14:11:27;5.05;;;1.80;;
72573;SDS011;60603;52.548;13.420;2022-08-21T14:16:22;5.90;;;1.83;;
72573;SDS011;60603;52.548;13.420;2022-08-21T14:21:36;5.95;;;2.17;;
72573;SDS011;60603;52.548;13.420;2022-08-21T14:24:05;6.85;;;2.33;;
72573;SDS011;60603;52.548;13.420;2022-08-21T14:26:32;5.25;;;1.75;;
72573;SDS011;60603;52.548;13.420;2022-08-21T14:28:58;5.68;;;1.95;;
72573;SDS011;60603;52.548;13.420;2022-08-21T14:31:27;4.50;;;1.95;;
72573;SDS011;60603;52.548;13.420;2022-08-21T14:33:54;4.97;;;2.00;;
72573;SDS011;60603;52.548;13.420;2022-08-21T14:36:20;6.82;;;1.65;;
72573;SDS011;60603;52.548;13.420;2022-08-21T14:38:45;5.00;;;1.70;;
72573;SDS011;60603;52.548;13.420;2022-08-21T14:43:41;7.85;;;2.08;;
72573;SDS011;60603;52.548;13.420;2022-08-21T14:46:07;7.32;;;2.03;;
72573;SDS011;60603;52.548;13.420;2022-08-21T14:48:32;3.63;;;1.63;;
72573;SDS011;60603;52.548;13.420;2022-08-21T14:50:58;5.28;;;1.60;;
72573;SDS011;60603;52.548;13.420;2022-08-21T14:53:24;6.50;;;1.88;;
72573;SDS011;60603;52.548;13.420;2022-08-21T14:55:50;6.30;;;2.10;;
72573;SDS011;60603;52.548;13.420;2022-08-21T14:58:31;5.93;;;1.85;;
72573;SDS011;60603;52.548;13.420;2022-08-21T15:00:57;6.20;;;2.17;;
72573;SDS011;60603;52.548;13.420;2022-08-21T15:03:24;3.88;;;1.60;;
72573;SDS011;60603;52.548;13.420;2022-08-21T15:05:50;6.53;;;1.60;;
72573;SDS011;60603;52.548;13.420;2022-08-21T15:08:16;6.07;;;1.90;;
72573;SDS011;60603;52.548;13.420;2022-08-21T15:10:41;5.35;;;1.90;;
72573;SDS011;60603;52.548;13.420;2022-08-21T15:13:07;8.27;;;2.33;;
72573;SDS011;60603;52.548;13.420;2022-08-21T15:15:34;6.57;;;2.05;;
72573;SDS011;60603;52.548;13.420;2022-08-21T15:18:00;5.65;;;2.00;;
72573;SDS011;60603;52.548;13.420;2022-08-21T15:20:26;4.30;;;1.50;;
72573;SDS011;60603;52.548;13.420;2022-08-21T15:22:52;6.28;;;1.70;;
72573;SDS011;60603;52.548;13.420;2022-08-21T15:25:17;7.20;;;1.65;;
72573;SDS011;60603;52.548;13.420;2022-08-21T15:27:43;5.30;;;2.03;;
72573;SDS011;60603;52.548;13.420;2022-08-21T15:30:09;5.28;;;1.80;;
72573;SDS011;60603;52.548;13.420;2022-08-21T15:32:35;4.57;;;1.83;;
72573;SDS011;60603;52.548;13.420;2022-08-21T15:35:00;7.30;;;1.77;;
72573;SDS011;60603;52.548;13.420;2022-08-21T15:37:29;3.83;;;1.70;;
72573;SDS011;60603;52.548;13.420;2022-08-21T15:39:58;7.35;;;1.80;;
72573;SDS011;60603;52.548;13.420;2022-08-21T15:42:24;8.25;;;1.90;;